sensor_id;sensor_type;location;lat;lon;timestamp;pressure;altitude;pressure_sealevel;temperature;humidity
35307;BME280;21420;52.196;21.416;2022-07-06T00:01:27;100383.64;;;17.07;65.50
35307;BME280;21420;52.196;21.416;2022-07-06T00:03:53;100387.19;;;17.08;65.46
35307;BME280;21420;52.196;21.416;2022-07-06T00:06:19;100377.88;;;17.06;65.48
35307;BME280;21420;52.196;21.416;2022-07-06T00:08:45;100376.30;;;17.05;65.47
35307;BME280;21420;52.196;21.416;2022-07-06T00:11:12;100379.44;;;17.03;65.50
35307;BME280;21420;52.196;21.416;2022-07-06T00:13:38;100375.29;;;17.03;65.53
35307;BME280;21420;52.196;21.416;2022-07-06T00:16:05;100380.03;;;17.03;65.54
35307;BME280;21420;52.196;21.416;2022-07-06T00:18:31;100381.19;;;17.02;65.54
35307;BME280;21420;52.196;21.416;2022-07-06T00:20:57;100383.39;;;17.02;65.58
35307;BME280;21420;52.196;21.416;2022-07-06T00:23:24;100378.60;;;16.99;65.55
35307;BME280;21420;52.196;21.416;2022-07-06T00:25:50;100381.96;;;16.99;65.54
35307;BME280;21420;52.196;21.416;2022-07-06T00:28:16;100378.77;;;16.97;65.57
35307;BME280;21420;52.196;21.416;2022-07-06T00:30:43;100383.10;;;16.94;65.56
35307;BME280;21420;52.196;21.416;2022-07-06T00:33:09;100379.13;;;16.92;65.62
35307;BME280;21420;52.196;21.416;2022-07-06T00:35:35;100375.34;;;16.90;65.62
35307;BME280;21420;52.196;21.416;2022-07-06T00:38:02;100373.17;;;16.90;65.68
35307;BME280;21420;52.196;21.416;2022-07-06T00:40:28;100376.55;;;16.93;65.75
35307;BME280;21420;52.196;21.416;2022-07-06T00:42:56;100374.02;;;16.94;65.78
35307;BME280;21420;52.196;21.416;2022-07-06T00:45:23;100374.80;;;16.94;65.80
35307;BME280;21420;52.196;21.416;2022-07-06T00:47:49;100372.04;;;16.94;65.82
35307;BME280;21420;52.196;21.416;2022-07-06T00:50:17;100365.91;;;16.95;65.84
35307;BME280;21420;52.196;21.416;2022-07-06T00:52:46;100364.75;;;16.96;65.87
35307;BME280;21420;52.196;21.416;2022-07-06T00:55:15;100355.86;;;16.96;65.89
35307;BME280;21420;52.196;21.416;2022-07-06T00:57:44;100356.45;;;16.96;65.93
35307;BME280;21420;52.196;21.416;2022-07-06T01:00:13;100348.95;;;16.96;65.95
35307;BME280;21420;52.196;21.416;2022-07-06T01:02:40;100352.09;;;16.95;65.88
35307;BME280;21420;52.196;21.416;2022-07-06T01:05:08;100343.36;;;16.89;65.85
35307;BME280;21420;52.196;21.416;2022-07-06T01:07:36;100340.54;;;16.85;65.88
35307;BME280;21420;52.196;21.416;2022-07-06T01:10:05;100345.05;;;16.84;65.91
35307;BME280;21420;52.196;21.416;2022-07-06T01:12:33;100348.81;;;16.82;65.95
35307;BME280;21420;52.196;21.416;2022-07-06T01:15:05;100351.95;;;16.80;65.95
35307;BME280;21420;52.196;21.416;2022-07-06T01:17:33;100347.58;;;16.79;66.02
35307;BME280;21420;52.196;21.416;2022-07-06T01:22:41;100346.20;;;16.79;66.02
35307;BME280;21420;52.196;21.416;2022-07-06T01:25:09;100340.81;;;16.77;66.03
35307;BME280;21420;52.196;21.416;2022-07-06T01:27:36;100345.92;;;16.75;66.00
35307;BME280;21420;52.196;21.416;2022-07-06T01:30:10;100344.52;;;16.71;66.03
35307;BME280;21420;52.196;21.416;2022-07-06T01:32:38;100347.05;;;16.70;66.07
35307;BME280;21420;52.196;21.416;2022-07-06T01:35:07;100349.82;;;16.70;66.13
35307;BME280;21420;52.196;21.416;2022-07-06T01:37:35;100353.00;;;16.72;66.22
35307;BME280;21420;52.196;21.416;2022-07-06T01:40:03;100358.76;;;16.73;66.19
35307;BME280;21420;52.196;21.416;2022-07-06T01:42:31;100355.34;;;16.70;66.15
35307;BME280;21420;52.196;21.416;2022-07-06T01:44:58;100357.12;;;16.69;66.18
35307;BME280;21420;52.196;21.416;2022-07-06T01:47:25;100356.71;;;16.67;66.18
35307;BME280;21420;52.196;21.416;2022-07-06T01:49:51;100361.42;;;16.66;66.22
35307;BME280;21420;52.196;21.416;2022-07-06T01:52:20;100350.77;;;16.64;66.22
35307;BME280;21420;52.196;21.416;2022-07-06T01:54:47;100360.80;;;16.63;66.26
35307;BME280;21420;52.196;21.416;2022-07-06T01:57:13;100359.64;;;16.64;66.32
35307;BME280;21420;52.196;21.416;2022-07-06T01:59:39;100355.89;;;16.66;66.34
35307;BME280;21420;52.196;21.416;2022-07-06T02:02:05;100351.74;;;16.66;66.37
35307;BME280;21420;52.196;21.416;2022-07-06T02:04:31;100351.38;;;16.68;66.37
35307;BME280;21420;52.196;21.416;2022-07-06T02:06:58;100346.07;;;16.69;66.41
35307;BME280;21420;52.196;21.416;2022-07-06T02:09:24;100350.64;;;16.71;66.44
35307;BME280;21420;52.196;21.416;2022-07-06T02:11:50;100343.55;;;16.73;66.46
35307;BME280;21420;52.196;21.416;2022-07-06T02:14:16;100349.08;;;16.73;66.45
35307;BME280;21420;52.196;21.416;2022-07-06T02:19:13;100342.17;;;16.73;66.47
35307;BME280;21420;52.196;21.416;2022-07-06T02:21:39;100342.73;;;16.73;66.44
35307;BME280;21420;52.196;21.416;2022-07-06T02:24:06;100345.67;;;16.70;66.42
35307;BME280;21420;52.196;21.416;2022-07-06T02:26:32;100346.07;;;16.69;66.44
35307;BME280;21420;52.196;21.416;2022-07-06T02:28:58;100348.25;;;16.69;66.47
35307;BME280;21420;52.196;21.416;2022-07-06T02:31:25;100347.65;;;16.70;66.51
35307;BME280;21420;52.196;21.416;2022-07-06T02:33:51;100349.03;;;16.70;66.52
35307;BME280;21420;52.196;21.416;2022-07-06T02:36:17;100351.63;;;16.72;66.57
35307;BME280;21420;52.196;21.416;2022-07-06T02:38:44;100349.08;;;16.73;66.57
35307;BME280;21420;52.196;21.416;2022-07-06T02:41:10;100349.65;;;16.73;66.58
35307;BME280;21420;52.196;21.416;2022-07-06T02:43:37;100342.17;;;16.73;66.56
35307;BME280;21420;52.196;21.416;2022-07-06T02:46:05;100342.17;;;16.73;66.57
35307;BME280;21420;52.196;21.416;2022-07-06T02:48:32;100345.92;;;16.75;66.62
35307;BME280;21420;52.196;21.416;2022-07-06T02:50:58;100343.98;;;16.75;66.58
35307;BME280;21420;52.196;21.416;2022-07-06T02:53:24;100348.48;;;16.74;66.57
35307;BME280;21420;52.196;21.416;2022-07-06T02:55:51;100343.75;;;16.74;66.58
35307;BME280;21420;52.196;21.416;2022-07-06T02:58:18;100344.94;;;16.73;66.61
35307;BME280;21420;52.196;21.416;2022-07-06T03:00:44;100342.95;;;16.74;66.59
35307;BME280;21420;52.196;21.416;2022-07-06T03:03:10;100338.22;;;16.74;66.62
35307;BME280;21420;52.196;21.416;2022-07-06T03:05:37;100342.95;;;16.74;66.62
35307;BME280;21420;52.196;21.416;2022-07-06T03:08:04;100343.16;;;16.75;66.67
35307;BME280;21420;52.196;21.416;2022-07-06T03:10:30;100338.45;;;16.75;66.66
35307;BME280;21420;52.196;21.416;2022-07-06T03:12:57;100342.54;;;16.72;66.59
35307;BME280;21420;52.196;21.416;2022-07-06T03:15:23;100344.12;;;16.73;66.67
35307;BME280;21420;52.196;21.416;2022-07-06T03:17:49;100341.58;;;16.74;66.71
35307;BME280;21420;52.196;21.416;2022-07-06T03:20:16;100340.02;;;16.76;66.71
35307;BME280;21420;52.196;21.416;2022-07-06T03:22:42;100338.47;;;16.79;66.69
35307;BME280;21420;52.196;21.416;2022-07-06T03:25:10;100331.41;;;16.81;66.73
35307;BME280;21420;52.196;21.416;2022-07-06T03:27:37;100334.17;;;16.81;66.71
35307;BME280;21420;52.196;21.416;2022-07-06T03:30:04;100334.39;;;16.82;66.71
35307;BME280;21420;52.196;21.416;2022-07-06T03:32:31;100329.66;;;16.83;66.73
35307;BME280;21420;52.196;21.416;2022-07-06T03:34:58;100334.00;;;16.84;66.73
35307;BME280;21420;52.196;21.416;2022-07-06T03:37:24;100339.94;;;16.86;66.77
35307;BME280;21420;52.196;21.416;2022-07-06T03:39:51;100338.37;;;16.85;66.68
35307;BME280;21420;52.196;21.416;2022-07-06T03:42:17;100334.41;;;16.86;66.75
35307;BME280;21420;52.196;21.416;2022-07-06T03:44:43;100336.02;;;16.87;66.73
35307;BME280;21420;52.196;21.416;2022-07-06T03:47:10;100339.40;;;16.90;66.79
35307;BME280;21420;52.196;21.416;2022-07-06T03:49:36;100337.23;;;16.90;66.74
35307;BME280;21420;52.196;21.416;2022-07-06T03:52:03;100335.25;;;16.90;66.73
35307;BME280;21420;52.196;21.416;2022-07-06T03:54:31;100334.83;;;16.88;66.69
35307;BME280;21420;52.196;21.416;2022-07-06T03:56:58;100328.14;;;16.89;66.71
35307;BME280;21420;52.196;21.416;2022-07-06T03:59:24;100316.86;;;16.88;66.74
35307;BME280;21420;52.196;21.416;2022-07-06T04:01:51;100319.03;;;16.89;66.69
35307;BME280;21420;52.196;21.416;2022-07-06T04:04:19;100310.91;;;16.86;66.69
35307;BME280;21420;52.196;21.416;2022-07-06T04:06:45;100307.95;;;16.85;66.72
35307;BME280;21420;52.196;21.416;2022-07-06T04:09:12;100303.58;;;16.84;66.72
35307;BME280;21420;52.196;21.416;2022-07-06T04:11:39;100301.64;;;16.84;66.77
35307;BME280;21420;52.196;21.416;2022-07-06T04:14:05;100300.80;;;16.80;66.59
35307;BME280;21420;52.196;21.416;2022-07-06T04:16:32;100301.91;;;16.76;66.64
35307;BME280;21420;52.196;21.416;2022-07-06T04:18:58;100297.54;;;16.75;66.65
35307;BME280;21420;52.196;21.416;2022-07-06T04:21:25;100298.50;;;16.73;66.73
35307;BME280;21420;52.196;21.416;2022-07-06T04:23:51;100290.80;;;16.72;66.67
35307;BME280;21420;52.196;21.416;2022-07-06T04:26:18;100284.48;;;16.72;66.73
35307;BME280;21420;52.196;21.416;2022-07-06T04:28:44;100279.75;;;16.72;66.79
35307;BME280;21420;52.196;21.416;2022-07-06T04:31:10;100280.15;;;16.71;66.67
35307;BME280;21420;52.196;21.416;2022-07-06T04:33:39;100278.54;;;16.70;66.76
35307;BME280;21420;52.196;21.416;2022-07-06T04:36:05;100278.00;;;16.74;66.82
35307;BME280;21420;52.196;21.416;2022-07-06T04:38:33;100279.80;;;16.76;66.81
35307;BME280;21420;52.196;21.416;2022-07-06T04:41:01;100274.68;;;16.78;66.85
35307;BME280;21420;52.196;21.416;2022-07-06T04:43:28;100278.09;;;16.81;66.84
35307;BME280;21420;52.196;21.416;2022-07-06T04:45:55;100278.15;;;16.88;66.94
35307;BME280;21420;52.196;21.416;2022-07-06T04:48:21;100279.58;;;16.92;66.82
35307;BME280;21420;52.196;21.416;2022-07-06T04:50:48;100276.21;;;16.92;66.77
35307;BME280;21420;52.196;21.416;2022-07-06T04:53:16;100277.42;;;16.95;66.79
35307;BME280;21420;52.196;21.416;2022-07-06T04:55:42;100276.39;;;16.90;66.56
35307;BME280;21420;52.196;21.416;2022-07-06T04:58:08;100274.97;;;16.86;66.62
35307;BME280;21420;52.196;21.416;2022-07-06T05:00:35;100275.56;;;16.85;66.65
35307;BME280;21420;52.196;21.416;2022-07-06T05:03:01;100273.16;;;16.84;66.68
35307;BME280;21420;52.196;21.416;2022-07-06T05:05:27;100279.52;;;16.84;66.66
35307;BME280;21420;52.196;21.416;2022-07-06T05:07:54;100273.21;;;16.88;66.76
35307;BME280;21420;52.196;21.416;2022-07-06T05:10:20;100282.11;;;16.91;66.70
35307;BME280;21420;52.196;21.416;2022-07-06T05:12:48;100275.42;;;16.92;66.69
35307;BME280;21420;52.196;21.416;2022-07-06T05:15:15;100275.42;;;16.92;66.61
35307;BME280;21420;52.196;21.416;2022-07-06T05:17:42;100285.16;;;16.99;66.79
35307;BME280;21420;52.196;21.416;2022-07-06T05:20:09;100281.94;;;17.14;66.91
35307;BME280;21420;52.196;21.416;2022-07-06T05:22:37;100279.66;;;17.26;66.91
35307;BME280;21420;52.196;21.416;2022-07-06T05:25:04;100280.74;;;17.39;66.91
35307;BME280;21420;52.196;21.416;2022-07-06T05:27:31;100292.27;;;17.48;66.84
35307;BME280;21420;52.196;21.416;2022-07-06T05:29:57;100296.05;;;17.53;66.75
35307;BME280;21420;52.196;21.416;2022-07-06T05:32:25;100295.13;;;17.59;66.65
35307;BME280;21420;52.196;21.416;2022-07-06T05:34:52;100300.44;;;17.58;66.52
35307;BME280;21420;52.196;21.416;2022-07-06T05:37:19;100304.17;;;17.52;66.36
35307;BME280;21420;52.196;21.416;2022-07-06T05:39:45;100309.67;;;17.48;66.35
35307;BME280;21420;52.196;21.416;2022-07-06T05:42:12;100312.25;;;17.51;66.38
35307;BME280;21420;52.196;21.416;2022-07-06T05:44:39;100313.67;;;17.55;66.46
35307;BME280;21420;52.196;21.416;2022-07-06T05:47:06;100314.73;;;17.67;66.59
35307;BME280;21420;52.196;21.416;2022-07-06T05:49:51;100311.66;;;17.79;66.66
35307;BME280;21420;52.196;21.416;2022-07-06T05:52:37;100318.68;;;17.94;66.67
35307;BME280;21420;52.196;21.416;2022-07-06T05:55:05;100324.06;;;18.00;66.51
35307;BME280;21420;52.196;21.416;2022-07-06T05:57:32;100312.20;;;18.03;66.51
35307;BME280;21420;52.196;21.416;2022-07-06T06:00:00;100322.74;;;18.10;66.46
35307;BME280;21420;52.196;21.416;2022-07-06T06:02:26;100324.75;;;18.17;66.49
35307;BME280;21420;52.196;21.416;2022-07-06T06:04:53;100324.34;;;18.19;66.39
35307;BME280;21420;52.196;21.416;2022-07-06T06:07:19;100330.48;;;18.18;66.29
35307;BME280;21420;52.196;21.416;2022-07-06T06:09:45;100328.72;;;18.20;66.28
35307;BME280;21420;52.196;21.416;2022-07-06T06:12:11;100329.50;;;18.20;66.27
35307;BME280;21420;52.196;21.416;2022-07-06T06:14:37;100332.69;;;18.22;66.24
35307;BME280;21420;52.196;21.416;2022-07-06T06:17:04;100332.30;;;18.27;66.23
35307;BME280;21420;52.196;21.416;2022-07-06T06:19:32;100334.69;;;18.33;66.22
35307;BME280;21420;52.196;21.416;2022-07-06T06:21:59;100335.53;;;18.40;66.27
35307;BME280;21420;52.196;21.416;2022-07-06T06:24:25;100334.38;;;18.52;66.29
35307;BME280;21420;52.196;21.416;2022-07-06T06:26:53;100335.37;;;18.57;66.09
35307;BME280;21420;52.196;21.416;2022-07-06T06:29:19;100337.98;;;18.63;66.16
35307;BME280;21420;52.196;21.416;2022-07-06T06:31:45;100334.88;;;18.79;66.30
35307;BME280;21420;52.196;21.416;2022-07-06T06:34:12;100335.70;;;18.98;66.23
35307;BME280;21420;52.196;21.416;2022-07-06T06:36:38;100334.91;;;19.11;66.17
35307;BME280;21420;52.196;21.416;2022-07-06T06:39:05;100336.52;;;19.27;66.14
35307;BME280;21420;52.196;21.416;2022-07-06T06:41:32;100339.09;;;19.51;66.24
35307;BME280;21420;52.196;21.416;2022-07-06T06:43:58;100338.91;;;19.75;66.23
35307;BME280;21420;52.196;21.416;2022-07-06T06:46:26;100333.87;;;20.03;66.18
35307;BME280;21420;52.196;21.416;2022-07-06T06:48:52;100340.52;;;20.34;66.17
35307;BME280;21420;52.196;21.416;2022-07-06T06:51:18;100337.64;;;20.59;66.01
35307;BME280;21420;52.196;21.416;2022-07-06T06:53:47;100336.31;;;20.86;65.95
35307;BME280;21420;52.196;21.416;2022-07-06T06:56:13;100339.76;;;21.04;65.65
35307;BME280;21420;52.196;21.416;2022-07-06T06:58:39;100333.13;;;21.13;65.40
35307;BME280;21420;52.196;21.416;2022-07-06T07:01:05;100334.28;;;21.19;65.21
35307;BME280;21420;52.196;21.416;2022-07-06T07:03:32;100333.23;;;21.25;65.05
35307;BME280;21420;52.196;21.416;2022-07-06T07:05:58;100329.94;;;21.41;65.14
35307;BME280;21420;52.196;21.416;2022-07-06T07:08:25;100332.55;;;21.62;65.15
35307;BME280;21420;52.196;21.416;2022-07-06T07:10:51;100337.31;;;21.85;64.98
35307;BME280;21420;52.196;21.416;2022-07-06T07:13:17;100337.34;;;22.00;64.84
35307;BME280;21420;52.196;21.416;2022-07-06T07:15:44;100340.25;;;22.27;64.82
35307;BME280;21420;52.196;21.416;2022-07-06T07:18:10;100344.93;;;22.49;64.66
35307;BME280;21420;52.196;21.416;2022-07-06T07:20:37;100348.57;;;22.61;64.37
35307;BME280;21420;52.196;21.416;2022-07-06T07:23:03;100351.12;;;22.79;64.30
35307;BME280;21420;52.196;21.416;2022-07-06T07:25:29;100343.75;;;23.08;64.16
35307;BME280;21420;52.196;21.416;2022-07-06T07:27:55;100341.92;;;23.21;63.84
35307;BME280;21420;52.196;21.416;2022-07-06T07:30:22;100346.02;;;23.28;63.67
35307;BME280;21420;52.196;21.416;2022-07-06T07:32:49;100345.33;;;23.33;63.34
35307;BME280;21420;52.196;21.416;2022-07-06T07:35:15;100346.06;;;23.37;63.25
35307;BME280;21420;52.196;21.416;2022-07-06T07:37:41;100349.17;;;23.54;63.35
35307;BME280;21420;52.196;21.416;2022-07-06T07:40:08;100351.70;;;23.68;63.28
35307;BME280;21420;52.196;21.416;2022-07-06T07:42:35;100353.05;;;24.36;63.86
35307;BME280;21420;52.196;21.416;2022-07-06T07:45:03;100348.19;;;25.04;63.72
35307;BME280;21420;52.196;21.416;2022-07-06T07:47:31;100345.95;;;25.40;63.08
35307;BME280;21420;52.196;21.416;2022-07-06T07:49:57;100349.69;;;25.42;62.27
35307;BME280;21420;52.196;21.416;2022-07-06T07:52:23;100356.41;;;25.11;61.57
35307;BME280;21420;52.196;21.416;2022-07-06T07:54:50;100356.84;;;24.65;60.90
35307;BME280;21420;52.196;21.416;2022-07-06T07:57:16;100363.03;;;24.17;60.85
35307;BME280;21420;52.196;21.416;2022-07-06T07:59:43;100360.55;;;24.10;61.41
35307;BME280;21420;52.196;21.416;2022-07-06T08:02:09;100361.23;;;24.46;61.54
35307;BME280;21420;52.196;21.416;2022-07-06T08:04:35;100367.50;;;24.42;61.01
35307;BME280;21420;52.196;21.416;2022-07-06T08:07:01;100368.63;;;24.37;60.97
35307;BME280;21420;52.196;21.416;2022-07-06T08:09:27;100371.80;;;24.39;60.99
35307;BME280;21420;52.196;21.416;2022-07-06T08:11:54;100370.89;;;25.34;62.09
35307;BME280;21420;52.196;21.416;2022-07-06T08:14:21;100363.37;;;26.31;61.76
35307;BME280;21420;52.196;21.416;2022-07-06T08:16:47;100365.09;;;26.75;61.09
35307;BME280;21420;52.196;21.416;2022-07-06T08:19:13;100366.96;;;26.99;60.55
35307;BME280;21420;52.196;21.416;2022-07-06T08:21:41;100369.05;;;27.16;59.92
35307;BME280;21420;52.196;21.416;2022-07-06T08:24:08;100372.56;;;27.98;60.47
35307;BME280;21420;52.196;21.416;2022-07-06T08:26:37;100368.17;;;28.94;60.42
35307;BME280;21420;52.196;21.416;2022-07-06T08:29:03;100364.34;;;29.69;59.95
35307;BME280;21420;52.196;21.416;2022-07-06T08:31:30;100370.02;;;30.90;60.29
35307;BME280;21420;52.196;21.416;2022-07-06T08:33:57;100375.22;;;31.92;59.51
35307;BME280;21420;52.196;21.416;2022-07-06T08:36:24;100377.81;;;32.84;59.06
35307;BME280;21420;52.196;21.416;2022-07-06T08:38:50;100365.11;;;33.50;58.36
35307;BME280;21420;52.196;21.416;2022-07-06T08:41:18;100368.58;;;33.29;56.60
35307;BME280;21420;52.196;21.416;2022-07-06T08:43:47;100374.01;;;32.43;55.30
35307;BME280;21420;52.196;21.416;2022-07-06T08:46:13;100371.10;;;32.52;56.15
35307;BME280;21420;52.196;21.416;2022-07-06T08:48:40;100365.89;;;33.41;56.38
35307;BME280;21420;52.196;21.416;2022-07-06T08:51:07;100356.89;;;34.14;55.94
35307;BME280;21420;52.196;21.416;2022-07-06T08:53:33;100354.89;;;34.62;55.14
35307;BME280;21420;52.196;21.416;2022-07-06T08:56:01;100356.06;;;34.97;54.52
35307;BME280;21420;52.196;21.416;2022-07-06T08:58:27;100355.08;;;35.22;54.17
35307;BME280;21420;52.196;21.416;2022-07-06T09:00:55;100355.31;;;35.45;53.35
35307;BME280;21420;52.196;21.416;2022-07-06T09:03:21;100357.94;;;35.55;52.88
35307;BME280;21420;52.196;21.416;2022-07-06T09:05:50;100358.66;;;35.71;52.66
35307;BME280;21420;52.196;21.416;2022-07-06T09:08:19;100365.14;;;36.10;52.39
35307;BME280;21420;52.196;21.416;2022-07-06T09:10:47;100356.41;;;36.70;52.30
35307;BME280;21420;52.196;21.416;2022-07-06T09:13:13;100363.64;;;37.11;51.94
35307;BME280;21420;52.196;21.416;2022-07-06T09:15:39;100364.64;;;37.65;51.76
35307;BME280;21420;52.196;21.416;2022-07-06T09:18:06;100371.16;;;37.60;50.56
35307;BME280;21420;52.196;21.416;2022-07-06T09:20:33;100356.42;;;36.64;49.17
35307;BME280;21420;52.196;21.416;2022-07-06T09:23:03;100369.59;;;36.28;49.10
35307;BME280;21420;52.196;21.416;2022-07-06T09:25:30;100365.20;;;35.56;49.02
35307;BME280;21420;52.196;21.416;2022-07-06T09:27:58;100356.23;;;35.74;49.13
35307;BME280;21420;52.196;21.416;2022-07-06T09:30:26;100366.88;;;36.40;49.39
35307;BME280;21420;52.196;21.416;2022-07-06T09:32:56;100366.08;;;37.02;49.23
35307;BME280;21420;52.196;21.416;2022-07-06T09:35:35;100368.73;;;36.60;47.97
35307;BME280;21420;52.196;21.416;2022-07-06T09:38:10;100362.48;;;36.28;48.02
35307;BME280;21420;52.196;21.416;2022-07-06T09:40:42;100356.30;;;36.69;48.22
35307;BME280;21420;52.196;21.416;2022-07-06T09:45:50;100346.91;;;37.54;47.77
35307;BME280;21420;52.196;21.416;2022-07-06T09:48:27;100356.81;;;38.06;47.54
35307;BME280;21420;52.196;21.416;2022-07-06T09:50:57;100357.78;;;38.32;47.19
35307;BME280;21420;52.196;21.416;2022-07-06T09:53:26;100352.37;;;37.46;45.30
35307;BME280;21420;52.196;21.416;2022-07-06T09:55:54;100348.31;;;37.19;44.77
35307;BME280;21420;52.196;21.416;2022-07-06T09:58:24;100346.81;;;36.79;45.00
35307;BME280;21420;52.196;21.416;2022-07-06T10:00:50;100347.55;;;37.02;44.92
35307;BME280;21420;52.196;21.416;2022-07-06T10:03:17;100351.05;;;37.01;44.68
35307;BME280;21420;52.196;21.416;2022-07-06T10:05:45;100341.09;;;36.56;44.06
35307;BME280;21420;52.196;21.416;2022-07-06T10:08:13;100339.15;;;36.86;44.43
35307;BME280;21420;52.196;21.416;2022-07-06T10:10:41;100340.55;;;36.18;43.23
35307;BME280;21420;52.196;21.416;2022-07-06T10:13:09;100342.12;;;34.99;42.59
35307;BME280;21420;52.196;21.416;2022-07-06T10:15:38;100339.10;;;33.72;42.46
35307;BME280;21420;52.196;21.416;2022-07-06T10:18:07;100332.94;;;32.43;42.16
35307;BME280;21420;52.196;21.416;2022-07-06T10:20:37;100345.56;;;31.68;42.89
35307;BME280;21420;52.196;21.416;2022-07-06T10:23:05;100350.88;;;32.10;43.84
35307;BME280;21420;52.196;21.416;2022-07-06T10:25:35;100348.92;;;33.26;44.79
35307;BME280;21420;52.196;21.416;2022-07-06T10:28:01;100352.76;;;34.57;45.07
35307;BME280;21420;52.196;21.416;2022-07-06T10:30:31;100348.13;;;35.56;44.66
35307;BME280;21420;52.196;21.416;2022-07-06T10:32:59;100357.95;;;36.37;44.56
35307;BME280;21420;52.196;21.416;2022-07-06T10:35:26;100354.07;;;36.46;43.77
35307;BME280;21420;52.196;21.416;2022-07-06T10:38:04;100354.48;;;36.66;43.69
35307;BME280;21420;52.196;21.416;2022-07-06T10:40:37;100350.81;;;36.88;42.96
35307;BME280;21420;52.196;21.416;2022-07-06T10:43:34;100338.98;;;37.13;42.69
35307;BME280;21420;52.196;21.416;2022-07-06T10:46:13;100338.36;;;36.97;41.48
35307;BME280;21420;52.196;21.416;2022-07-06T10:48:42;100350.09;;;36.59;41.30
35307;BME280;21420;52.196;21.416;2022-07-06T10:51:24;100345.53;;;36.80;41.06
35307;BME280;21420;52.196;21.416;2022-07-06T10:54:00;100347.70;;;36.92;40.86
35307;BME280;21420;52.196;21.416;2022-07-06T10:56:50;100336.13;;;37.19;40.67
35307;BME280;21420;52.196;21.416;2022-07-06T10:59:23;100339.16;;;36.92;39.76
35307;BME280;21420;52.196;21.416;2022-07-06T11:04:46;100343.13;;;36.11;39.44
35307;BME280;21420;52.196;21.416;2022-07-06T11:07:15;100345.23;;;35.77;39.59
35307;BME280;21420;52.196;21.416;2022-07-06T11:09:57;100341.63;;;35.55;39.53
35307;BME280;21420;52.196;21.416;2022-07-06T11:12:25;100346.06;;;35.95;39.98
35307;BME280;21420;52.196;21.416;2022-07-06T11:14:53;100338.00;;;36.37;39.90
35307;BME280;21420;52.196;21.416;2022-07-06T11:17:20;100344.08;;;36.40;39.13
35307;BME280;21420;52.196;21.416;2022-07-06T11:19:55;100342.52;;;36.34;38.81
35307;BME280;21420;52.196;21.416;2022-07-06T11:22:22;100333.58;;;36.36;38.84
35307;BME280;21420;52.196;21.416;2022-07-06T11:24:53;100331.40;;;36.41;38.56
35307;BME280;21420;52.196;21.416;2022-07-06T11:27:25;100329.05;;;36.29;38.20
35307;BME280;21420;52.196;21.416;2022-07-06T11:29:53;100318.69;;;35.70;37.36
35307;BME280;21420;52.196;21.416;2022-07-06T11:32:25;100329.20;;;34.82;37.39
35307;BME280;21420;52.196;21.416;2022-07-06T11:34:52;100330.05;;;34.31;37.36
35307;BME280;21420;52.196;21.416;2022-07-06T11:37:19;100329.29;;;33.94;37.45
35307;BME280;21420;52.196;21.416;2022-07-06T11:39:47;100323.50;;;33.42;37.38
35307;BME280;21420;52.196;21.416;2022-07-06T11:42:16;100330.00;;;33.48;37.85
35307;BME280;21420;52.196;21.416;2022-07-06T11:44:44;100325.59;;;33.16;37.46
35307;BME280;21420;52.196;21.416;2022-07-06T11:47:12;100326.86;;;32.65;37.22
35307;BME280;21420;52.196;21.416;2022-07-06T11:49:40;100321.30;;;32.26;37.49
35307;BME280;21420;52.196;21.416;2022-07-06T11:52:12;100324.14;;;32.55;37.78
35307;BME280;21420;52.196;21.416;2022-07-06T11:54:43;100320.45;;;33.00;38.13
35307;BME280;21420;52.196;21.416;2022-07-06T11:57:10;100319.14;;;33.26;37.89
35307;BME280;21420;52.196;21.416;2022-07-06T11:59:40;100315.93;;;32.83;37.22
35307;BME280;21420;52.196;21.416;2022-07-06T12:02:14;100332.55;;;32.20;36.97
35307;BME280;21420;52.196;21.416;2022-07-06T12:04:45;100334.66;;;31.52;36.79
35307;BME280;21420;52.196;21.416;2022-07-06T12:07:14;100335.06;;;30.64;36.61
35307;BME280;21420;52.196;21.416;2022-07-06T12:09:43;100338.03;;;29.91;36.71
35307;BME280;21420;52.196;21.416;2022-07-06T12:12:12;100337.48;;;29.37;36.93
35307;BME280;21420;52.196;21.416;2022-07-06T12:14:40;100341.23;;;28.93;36.92
35307;BME280;21420;52.196;21.416;2022-07-06T12:17:09;100341.80;;;28.26;36.86
35307;BME280;21420;52.196;21.416;2022-07-06T12:19:37;100338.48;;;27.83;37.15
35307;BME280;21420;52.196;21.416;2022-07-06T12:22:05;100340.39;;;27.34;37.05
35307;BME280;21420;52.196;21.416;2022-07-06T12:24:33;100340.43;;;27.13;37.35
35307;BME280;21420;52.196;21.416;2022-07-06T12:27:12;100334.11;;;26.91;37.54
35307;BME280;21420;52.196;21.416;2022-07-06T12:29:43;100337.42;;;27.07;38.13
35307;BME280;21420;52.196;21.416;2022-07-06T12:32:20;100332.00;;;27.73;38.33
35307;BME280;21420;52.196;21.416;2022-07-06T12:35:06;100326.64;;;27.83;37.92
35307;BME280;21420;52.196;21.416;2022-07-06T12:37:34;100331.67;;;27.71;37.80
35307;BME280;21420;52.196;21.416;2022-07-06T12:40:01;100335.60;;;28.09;38.29
35307;BME280;21420;52.196;21.416;2022-07-06T12:42:30;100328.11;;;28.59;38.31
35307;BME280;21420;52.196;21.416;2022-07-06T12:44:56;100342.47;;;28.83;38.07
35307;BME280;21420;52.196;21.416;2022-07-06T12:47:26;100331.71;;;29.00;38.00
35307;BME280;21420;52.196;21.416;2022-07-06T12:50:06;100329.13;;;29.10;37.88
35307;BME280;21420;52.196;21.416;2022-07-06T12:52:34;100331.20;;;29.28;37.90
35307;BME280;21420;52.196;21.416;2022-07-06T12:55:03;100324.64;;;29.50;37.74